Gwinn Tree farm 1-day Hourly Data
Report Date: 2-28-2008




                                   Avg       Avg    Avg       Avg              Total
                                  Solar       WS    Wind      Air       Avg     Rain
                    Time Stamp    KW/mē      mph  Directn    TempF      %RH     inch
------------------------------------------------------------------------------------
               02/27/08, 01:00     0.00     6.35      321    17.46       86     0.00
               02/27/08, 02:00     0.00     5.62      328    15.94       80     0.00
               02/27/08, 03:00     0.00     5.66      331    13.89       77     0.00
               02/27/08, 04:00     0.00     4.91      321    11.38       78     0.00
               02/27/08, 05:00     0.00     3.15      324     9.49       80     0.00
               02/27/08, 06:00     0.00     2.46      336     8.41       81     0.00
               02/27/08, 07:00     0.00     1.36      320     6.01       83     0.00
               02/27/08, 08:00     0.00     0.71      321     4.72       86     0.00
               02/27/08, 09:00     0.01     2.87      314     7.64       82     0.00
               02/27/08, 10:00     0.04     2.49      321    10.88       77     0.00
               02/27/08, 11:00     0.09     2.99      306    13.16       74     0.00
               02/27/08, 12:00     0.15     3.94      314    15.59       71     0.00
               02/27/08, 13:00     0.21     4.22      308    17.91       66     0.00
               02/27/08, 14:00     0.23     4.63      308    19.34       66     0.01
               02/27/08, 15:00     0.25     5.22      300    20.23       63     0.00
               02/27/08, 16:00     0.20     5.44      303    20.93       65     0.00
               02/27/08, 17:00     0.19     4.69      313    21.76       61     0.00
               02/27/08, 18:00     0.13     3.87      325    21.54       60     0.00
               02/27/08, 19:00     0.05     2.51      317    20.62       65     0.00
               02/27/08, 20:00     0.00     2.21      310    19.73       67     0.00
               02/27/08, 21:00     0.00     2.06      307    19.08       72     0.00
               02/27/08, 22:00     0.00     2.15      354    18.05       75     0.00
               02/27/08, 23:00     0.00     1.85       18    16.34       77     0.00
               02/27/08, 00:00     0.00     0.74       13    15.38       73     0.00
               02/28/08, 01:00     0.00     0.54      360    14.88       72     0.00
               02/28/08, 02:00     0.00     0.03      317    13.86       75     0.00
               02/28/08, 03:00     0.00     0.30      148    13.16       81     0.00
               02/28/08, 04:00     0.00     0.81      211    12.71       85     0.00
               02/28/08, 05:00     0.00     0.60      182    12.41       86     0.00
               02/28/08, 06:00     0.00     0.83      104    11.30       90     0.00
               02/28/08, 07:00     0.00     0.08      253    11.09       91     0.00
               02/28/08, 08:00     0.00     0.30      147    10.05       92     0.00
               02/28/08, 09:00     0.01     0.37      277    11.17       93     0.00
               02/28/08, 10:00     0.06     0.96      157    13.38       90     0.00
               02/28/08, 11:00     0.14     1.58      218    17.39       80     0.00
               02/28/08, 12:00     0.21     2.95      247    20.16       72     0.00
               02/28/08, 13:00     0.30     3.85      236    22.76       68     0.00
               02/28/08, 14:00     0.31     4.89      234    23.59       68     0.00
               02/28/08, 15:00     0.23     4.34      237    23.84       73     0.00
               02/28/08, 16:00     0.29     5.24      238    25.16       59     0.00
               02/28/08, 17:00     0.19     5.16      250    24.98       63     0.00
               02/28/08, 18:00     0.13     4.46      243    24.59       61     0.00